Flight Track Log - Related Links

Times and Time Zones

All times are in EDT time to prevent confusion due to time zone crossing. See the N120EA flight status page for this flight to view local times or setup timezone preferences in your user account.


Time Position Orientation Groundspeed Altitude Reporting Facility
EDT Latitude Longitude Course Direction KTS MPH feet Rate Location/Type
Wed 01:44:52 PM 43.9833 -88.5333 55° Northeast 185 213 1,700  Level KMKE
Wed 01:45:22 PM 44.0000 -88.5000 55° Northeast 157 181 3,000 2,933 Climbing KMKE
Wed 01:46:22 PM 44.0000 -88.4333 90° East 185 213 6,100 2,700 Climbing KMKE
Wed 01:47:22 PM 43.9833 -88.3500 106° East 181 208 8,400 2,190 Climbing KMKE
Wed 01:48:28 PM 43.9667 -88.3000 115° Southeast 201 231 10,700 1,962 Climbing KMKE
Wed 01:50:50 PM 43.8403 -88.2494 164° South 212 244 15,200 1,912 Climbing Chicago Center
Wed 01:51:52 PM 43.7731 -88.2253 165° South 214 246 17,200 1,694 Climbing Chicago Center
Wed 01:52:54 PM 43.7117 -88.2050 167° South 224 258 18,700 1,452 Climbing Chicago Center
Wed 01:53:56 PM 43.6489 -88.1822 165° South 230 265 20,200 1,500 Climbing Chicago Center
Wed 01:54:58 PM 43.5828 -88.1586 165° South 241 277 21,800 1,500 Climbing Chicago Center
Wed 01:56:00 PM 43.5142 -88.1342 166° South 251 289 23,300 1,500 Climbing Chicago Center
Wed 01:57:02 PM 43.4439 -88.1100 166° South 257 296 24,900 1,548 Climbing Chicago Center
Wed 01:58:04 PM 43.3714 -88.0853 166° South 265 305 26,500 1,500 Climbing Chicago Center
Wed 01:59:06 PM 43.2858 -88.0564 166° South 270 311 28,000 726 Climbing Chicago Center
Wed 02:00:08 PM 43.2075 -88.0292 166° South 285 328 28,000  Level Chicago Center
Wed 02:01:10 PM 43.1272 -88.0011 166° South 295 339 28,000  Level Chicago Center
Wed 02:02:11 PM 43.0467 -87.9736 166° South 297 342 28,000 976 Level Chicago Center
Wed 02:03:13 PM 42.9672 -87.9464 166° South 292 336 30,000 1,645 Climbing Chicago Center
Wed 02:04:15 PM 42.8925 -87.9200 165° South 279 321 31,400 1,258 Climbing Chicago Center
Wed 02:05:17 PM 42.8150 -87.8936 166° South 284 327 32,600 1,403 Climbing Chicago Center
Wed 02:06:19 PM 42.7236 -87.8636 166° South 286 329 34,300 1,500 Climbing Chicago Center
Wed 02:07:21 PM 42.6447 -87.8575 177° South 285 328 35,700 1,258 Climbing Chicago Center
Wed 02:08:23 PM 42.5681 -87.8561 179° South 276 318 36,900 976 Climbing Chicago Center
Wed 02:09:24 PM 42.4900 -87.8467 175° South 283 326 37,700 780 Climbing Chicago Center
Wed 02:10:26 PM 42.4125 -87.8153 163° South 289 333 38,500 919 Climbing Chicago Center
Wed 02:11:28 PM 42.3222 -87.7853 166° South 289 333 39,600 871 Climbing Chicago Center
Wed 02:12:30 PM 42.2453 -87.7597 166° South 286 329 40,300 677 Climbing Chicago Center
Wed 02:13:32 PM 42.1672 -87.7333 166° South 289 333 41,000 339 Climbing Chicago Center
Wed 02:14:34 PM 42.0881 -87.7067 166° South 294 338 41,000  Level Chicago Center
Wed 02:15:36 PM 42.0022 -87.6772 166° South 314 361 41,000  Level Chicago Center
Wed 02:16:38 PM 41.9142 -87.6475 166° South 325 374 41,000  Level Chicago Center
Wed 02:17:40 PM 41.8044 -87.6106 166° South 337 388 41,000  Level Chicago Center
Wed 02:18:42 PM 41.7122 -87.5789 166° South 341 392 41,000  Level Chicago Center
Wed 02:19:45 PM 41.6192 -87.5472 166° South 344 396 41,000  Level Chicago Center
Wed 02:20:47 PM 41.5253 -87.5161 166° South 346 398 41,000  Level Chicago Center
Wed 02:21:49 PM 41.4314 -87.4850 166° South 347 399 41,000  Level Chicago Center
Wed 02:22:51 PM 41.3369 -87.4539 166° South 348 400 41,000  Level Chicago Center
Wed 02:23:53 PM 41.2236 -87.4161 166° South 349 402 41,000  Level Chicago Center
Wed 02:24:55 PM 41.1281 -87.3872 167° South 350 403 41,000  Level Chicago Center
Wed 02:25:57 PM 41.0339 -87.3550 166° South 350 403 41,000  Level Chicago Center
Wed 02:26:59 PM 40.9392 -87.3244 166° South 351 404 41,000  Level Chicago Center
Wed 02:28:01 PM 40.8453 -87.2931 166° South 350 403 41,000  Level Chicago Center
Wed 02:29:03 PM 40.7506 -87.2636 167° South 350 403 41,000  Level Chicago Center
Wed 02:30:05 PM 40.6369 -87.2264 166° South 351 404 41,000  Level Chicago Center
Wed 02:31:08 PM 40.5417 -87.1953 166° South 352 405 41,000  Level Chicago Center
Wed 02:32:10 PM 40.4442 -87.1642 166° South 355 409 41,000  Level Chicago Center
Wed 02:33:12 PM 40.3497 -87.1333 166° South 353 406 41,000  Level Chicago Center
Wed 02:34:14 PM 40.2553 -87.1031 166° South 351 404 41,000  Level Chicago Center
Wed 02:35:16 PM 40.1600 -87.0719 166° South 354 407 41,000  Level Chicago Center
Wed 02:35:44 PM 40.1014 -87.0533 166° South 353 406 41,000  Level Indianapolis Center
Wed 02:36:45 PM 40.0075 -87.0231 166° South 351 404 41,000  Level Indianapolis Center
Wed 02:37:47 PM 39.9117 -86.9936 167° South 355 409 41,000  Level Indianapolis Center
Wed 02:38:49 PM 39.8175 -86.9628 166° South 352 405 41,000  Level Indianapolis Center
Wed 02:39:51 PM 39.7017 -86.9272 167° South 359 413 41,000  Level Indianapolis Center
Wed 02:40:53 PM 39.6081 -86.8964 166° South 353 406 41,000  Level Indianapolis Center
Wed 02:41:55 PM 39.5106 -86.8672 167° South 359 413 41,000  Level Indianapolis Center
Wed 02:42:57 PM 39.4164 -86.8378 166° South 353 406 41,000  Level Indianapolis Center
Wed 02:43:59 PM 39.3181 -86.8069 166° South 362 417 41,000  Level Indianapolis Center
Wed 02:45:01 PM 39.2022 -86.7703 166° South 359 413 41,000  Level Indianapolis Center
Wed 02:46:02 PM 39.1172 -86.7447 167° South 362 417 41,000  Level Indianapolis Center
Wed 02:47:04 PM 39.0192 -86.7142 166° South 361 415 41,000  Level Indianapolis Center
Wed 02:48:06 PM 38.9014 -86.6781 167° South 360 414 41,000  Level Indianapolis Center
Wed 02:49:08 PM 38.8028 -86.6461 166° South 362 417 41,000  Level Indianapolis Center
Wed 02:50:10 PM 38.7042 -86.6172 167° South 360 414 41,000  Level Indianapolis Center
Wed 02:51:12 PM 38.6056 -86.5872 167° South 361 415 41,000  Level Indianapolis Center
Wed 02:52:14 PM 38.5069 -86.5575 167° South 362 417 41,000  Level Indianapolis Center
Wed 02:53:16 PM 38.4086 -86.5269 166° South 361 415 41,000  Level Indianapolis Center
Wed 02:54:18 PM 38.3097 -86.4978 167° South 360 414 41,000  Level Indianapolis Center
Wed 02:55:20 PM 38.2111 -86.4664 166° South 361 415 41,000  Level Indianapolis Center
Wed 02:56:22 PM 38.1125 -86.4383 167° South 360 414 41,000  Level Indianapolis Center
Wed 02:57:24 PM 37.9942 -86.4022 166° South 361 415 41,000  Level Indianapolis Center
Wed 02:58:26 PM 37.8958 -86.3733 167° South 360 414 41,000  Level Indianapolis Center
Wed 02:59:28 PM 37.7994 -86.3450 167° South 358 412 41,000  Level Indianapolis Center
Wed 03:00:30 PM 37.7014 -86.3167 167° South 358 412 41,000  Level Indianapolis Center
Wed 03:01:32 PM 37.6022 -86.2858 166° South 360 414 41,000  Level Indianapolis Center
Wed 03:01:56 PM 37.5519 -86.2711 167° South 359 413 41,000  Level Memphis Center
Wed 03:02:56 PM 37.4553 -86.2422 167° South 359 413 41,000  Level Memphis Center
Wed 03:03:56 PM 37.3586 -86.2133 167° South 359 413 41,000  Level Memphis Center
Wed 03:04:56 PM 37.2617 -86.1844 167° South 359 413 41,000  Level Memphis Center
Wed 03:05:56 PM 37.1756 -86.1606 168° South 359 413 41,000  Level Memphis Center
Wed 03:06:56 PM 37.0786 -86.1317 167° South 359 413 41,000  Level Memphis Center
Wed 03:07:56 PM 36.9797 -86.1033 167° South 359 413 41,000  Level Memphis Center
Wed 03:08:56 PM 36.8831 -86.0747 167° South 359 413 41,000  Level Memphis Center
Wed 03:09:56 PM 36.7881 -86.0461 166° South 359 413 41,000  Level Memphis Center
Wed 03:10:56 PM 36.6786 -86.0156 167° South 359 413 41,000  Level Memphis Center
Wed 03:11:56 PM 36.5819 -85.9872 167° South 359 413 41,000  Level Memphis Center
Wed 03:12:56 PM 36.4808 -85.9592 167° South 364 419 41,000  Level Memphis Center
Wed 03:13:56 PM 36.3839 -85.9308 167° South 364 419 41,000  Level Memphis Center
Wed 03:14:56 PM 36.2828 -85.9003 166° South 364 419 41,000  Level Memphis Center
Wed 03:15:56 PM 36.1858 -85.8722 167° South 364 419 41,000  Level Memphis Center
Wed 03:16:56 PM 36.0869 -85.8469 168° South 364 419 41,000  Level Memphis Center
Wed 03:17:56 PM 35.9881 -85.8189 167° South 359 413 41,000  Level Memphis Center
Wed 03:18:56 PM 35.8889 -85.7911 167° South 359 413 41,000  Level Memphis Center
Wed 03:20:46 PM 35.7211 -85.7422 167° South 368 423 41,000  Level Atlanta Center
Wed 03:21:46 PM 35.6214 -85.7147 167° South 368 423 41,000  Level Atlanta Center
Wed 03:22:46 PM 35.5236 -85.6897 168° South 368 423 41,000  Level Atlanta Center
Wed 03:23:46 PM 35.4281 -85.6622 167° South 368 423 41,000  Level Atlanta Center
Wed 03:24:46 PM 35.3303 -85.6350 167° South 368 423 41,000  Level Atlanta Center
Wed 03:25:46 PM 35.2347 -85.6103 168° South 363 418 41,000  Level Atlanta Center
Wed 03:26:46 PM 35.1392 -85.5806 166° South 358 412 41,000  Level Atlanta Center
Wed 03:27:46 PM 35.0433 -85.5558 168° South 353 406 41,000  Level Atlanta Center
Wed 03:28:46 PM 34.9478 -85.5314 168° South 353 406 41,000  Level Atlanta Center
Wed 03:29:46 PM 34.8519 -85.5017 166° South 353 406 41,000  Level Atlanta Center
Wed 03:30:46 PM 34.7583 -85.4775 168° South 353 406 41,000  Level Atlanta Center
Wed 03:31:46 PM 34.6628 -85.4506 167° South 353 406 41,000  Level Atlanta Center
Wed 03:32:46 PM 34.5711 -85.4236 166° South 353 406 41,000  Level Atlanta Center
Wed 03:33:46 PM 34.4756 -85.3994 168° South 353 406 41,000  Level Atlanta Center
Wed 03:34:46 PM 34.3736 -85.3703 167° South 348 400 41,000  Level Atlanta Center
Wed 03:35:46 PM 34.2800 -85.3461 168° South 348 400 41,000  Level Atlanta Center
Wed 03:36:46 PM 34.1842 -85.3219 168° South 348 400 41,000  Level Atlanta Center
Wed 03:37:46 PM 34.0989 -85.2981 167° South 353 406 41,000  Level Atlanta Center
Wed 03:38:46 PM 34.0053 -85.2742 168° South 353 406 41,000  Level Atlanta Center
Wed 03:39:46 PM 33.9072 -85.2453 166° South 353 406 41,000  Level Atlanta Center
Wed 03:40:46 PM 33.8136 -85.2214 168° South 353 406 41,000  Level Atlanta Center
Wed 03:41:46 PM 33.7178 -85.1950 167° South 353 406 41,000  Level Atlanta Center
Wed 03:42:46 PM 33.6242 -85.1714 168° South 353 406 41,000  Level Atlanta Center
Wed 03:43:46 PM 33.5283 -85.1453 167° South 353 406 41,000  Level Atlanta Center
Wed 03:44:46 PM 33.4325 -85.1217 168° South 353 406 41,000  Level Atlanta Center
Wed 03:45:46 PM 33.3369 -85.0931 166° South 353 406 41,000  Level Atlanta Center
Wed 03:46:46 PM 33.2431 -85.0694 168° South 353 406 41,000  Level Atlanta Center
Wed 03:47:46 PM 33.1369 -85.0436 168° South 353 406 41,000  Level Atlanta Center
Wed 03:48:46 PM 33.0411 -85.0178 167° South 353 406 41,000  Level Atlanta Center
Wed 03:49:46 PM 32.9453 -84.9919 167° South 353 406 41,000  Level Atlanta Center
Wed 03:50:46 PM 32.8514 -84.9661 167° South 353 406 41,000  Level Atlanta Center
Wed 03:51:46 PM 32.7619 -84.9381 165° South 347 399 41,000  Level Atlanta Center
Wed 03:52:46 PM 32.6681 -84.9122 167° South 353 406 41,000  Level Atlanta Center
Wed 03:53:46 PM 32.5703 -84.8892 169° South 353 406 41,000  Level Atlanta Center
Wed 03:54:46 PM 32.4744 -84.8611 166° South 353 406 41,000  Level Atlanta Center
Wed 03:55:46 PM 32.3764 -84.8381 169° South 353 406 41,000  Level Atlanta Center
Wed 03:56:46 PM 32.2931 -84.8178 168° South 353 406 41,000  Level Atlanta Center
Wed 03:57:46 PM 32.1953 -84.7947 169° South 353 406 41,000  Level Atlanta Center
Wed 03:58:46 PM 32.1014 -84.7694 167° South 353 406 41,000  Level Atlanta Center
Wed 04:00:27 PM 31.9403 -84.7264 167° South 354 407 41,000  Level Jacksonville Center
Wed 04:01:27 PM 31.8489 -84.7025 167° South 354 407 41,000  Level Jacksonville Center
Wed 04:02:27 PM 31.7428 -84.6758 168° South 354 407 41,000  Level Jacksonville Center
Wed 04:03:27 PM 31.6492 -84.6497 167° South 354 407 41,000  Level Jacksonville Center
Wed 04:04:27 PM 31.5556 -84.6186 164° South 354 407 41,000  Level Jacksonville Center
Wed 04:05:27 PM 31.4644 -84.5731 157° South 354 407 41,000  Level Jacksonville Center
Wed 04:06:27 PM 31.3750 -84.5303 158° South 359 413 41,000  Level Jacksonville Center
Wed 04:07:27 PM 31.2858 -84.4850 157° South 354 407 41,000  Level Jacksonville Center
Wed 04:08:27 PM 31.1947 -84.4372 156° South 354 407 41,000  Level Jacksonville Center
Wed 04:09:27 PM 31.1033 -84.3897 156° South 354 407 41,000  Level Jacksonville Center
Wed 04:10:27 PM 31.0100 -84.3444 157° South 354 407 41,000  Level Jacksonville Center
Wed 04:11:27 PM 30.9206 -84.2972 156° South 354 407 41,000  Level Jacksonville Center
Wed 04:12:27 PM 30.8272 -84.2547 159° South 354 407 41,000  Level Jacksonville Center
Wed 04:13:27 PM 30.7358 -84.2075 156° South 354 407 41,000  Level Jacksonville Center
Wed 04:14:27 PM 30.6422 -84.1603 157° South 354 407 41,000  Level Jacksonville Center
Wed 04:15:27 PM 30.5675 -84.1231 157° South 359 413 41,000  Level Jacksonville Center
Wed 04:16:27 PM 30.4572 -84.0686 157° South 354 407 41,000  Level Jacksonville Center
Wed 04:18:27 PM 30.2722 -83.9772 157° South 359 413 41,000  Level Jacksonville Center
Wed 04:19:27 PM 30.1789 -83.9331 158° South 359 413 41,000  Level Jacksonville Center
Wed 04:20:27 PM 30.0853 -83.8889 158° South 359 413 41,000  Level Jacksonville Center
Wed 04:21:27 PM 29.9917 -83.8422 157° South 359 413 41,000  Level Jacksonville Center
Wed 04:22:27 PM 29.8981 -83.7983 158° South 364 419 41,000  Level Jacksonville Center
Wed 04:23:27 PM 29.8044 -83.7519 157° South 364 419 41,000 -100 Level Jacksonville Center
Wed 04:24:27 PM 29.7128 -83.7081 157° South 364 419 40,800 -500 Descending Jacksonville Center
Wed 04:25:27 PM 29.6169 -83.6594 156° South 364 419 40,000 -850 Descending Jacksonville Center
Wed 04:26:27 PM 29.5211 -83.6158 158° South 371 427 39,100 -500 Descending Jacksonville Center
Wed 04:27:27 PM 29.4256 -83.5697 157° South 376 433 39,000 -50 Descending Jacksonville Center
Wed 04:28:27 PM 29.3297 -83.5239 157° South 376 433 39,000  Level Jacksonville Center
Wed 04:29:27 PM 29.2464 -83.4806 156° South 376 433 39,000  Level Jacksonville Center
Wed 04:30:27 PM 29.1547 -83.4372 158° South 376 433 39,000  Level Jacksonville Center
Wed 04:31:27 PM 29.0653 -83.3939 157° South 369 425 39,000  Level Jacksonville Center
Wed 04:32:27 PM 28.9733 -83.3506 158° South 364 419 39,000  Level Jacksonville Center
Wed 04:33:27 PM 28.8797 -83.3383 173° South 346 398 39,000  Level Jacksonville Center
Wed 04:34:27 PM 28.7856 -83.3428 182° South 335 386 39,000  Level Jacksonville Center
Wed 04:35:27 PM 28.6939 -83.3469 182° South 335 386 39,000  Level Jacksonville Center
Wed 04:36:27 PM 28.6000 -83.3514 182° South 335 386 39,000 -517 Level Jacksonville Center
Wed 04:37:58 PM 28.4417 -83.3500 180° South 345 397 37,700 -1,192 Descending Miami Center
Wed 04:38:58 PM 28.3431 -83.3608 186° South 359 413 36,000 -1,350 Descending Miami Center
Wed 04:39:58 PM 28.2489 -83.3672 183° South 359 413 35,000 -500 Descending Miami Center
Wed 04:40:58 PM 28.1508 -83.3733 183° South 348 400 35,000 -450 Level Miami Center
Wed 04:41:58 PM 28.0528 -83.3747 181° South 353 406 34,100 -1,000 Descending Miami Center
Wed 04:42:58 PM 27.9611 -83.3692 177° South 346 398 33,000 -1,150 Descending Miami Center
Wed 04:43:58 PM 27.8758 -83.3644 120° Southeast 346 398 31,800 -1,100 Descending Miami Center
Wed 04:44:00 PM 27.9140 -83.2763 120° Southeast  Level FlightAware Approximate
Wed 04:44:58 PM 27.7950 -83.3058 147° Southeast 334 384 30,800  Level Miami Center
Wed 04:45:58 PM 27.7169 -83.2358 142° Southeast 344 396 30,100 -750 Descending Miami Center
Wed 04:46:58 PM 27.6261 -83.1675 146° Southeast 363 418 29,300 -950 Descending Miami Center
Wed 04:47:58 PM 27.5394 -83.0972 144° Southeast 380 437 28,200 -1,067 Descending Miami Center
Wed 04:49:00 PM 27.4632 -83.0353 144° Southeast  Level FlightAware Approximate
Wed 04:49:58 PM 27.3658 -82.9569 144° Southeast 386 444 26,100  Level Miami Center
Wed 04:50:58 PM 27.2811 -82.8894 145° Southeast 391 450 25,100 -1,000 Descending Miami Center
Wed 04:51:58 PM 27.1964 -82.8219 145° Southeast 381 438 24,100 -1,050 Descending Miami Center
Wed 04:52:58 PM 27.1156 -82.7572 145° Southeast 374 430 23,000 -1,450 Descending Miami Center
Wed 04:53:58 PM 27.0306 -82.6900 145° Southeast 374 430 21,200 -2,050 Descending Miami Center
Wed 04:54:58 PM 26.9478 -82.6231 144° Southeast 374 430 18,900 -2,200 Descending Miami Center
Wed 04:55:58 PM 26.8628 -82.5558 145° Southeast 369 425 16,800 -2,250 Descending Miami Center
Wed 04:56:58 PM 26.7797 -82.4892 144° Southeast 369 425 14,400 -2,400 Descending Miami Center
Wed 04:57:58 PM 26.6989 -82.4250 145° Southeast 364 419 12,000 -2,300 Descending Miami Center
Wed 04:58:58 PM 26.6278 -82.3703 145° Southeast 340 391 9,800 -2,100 Descending Miami Center
Wed 04:59:58 PM 26.5628 -82.3233 147° Southeast 309 356 7,800 -1,400 Descending Miami Center
Wed 05:00:58 PM 26.4978 -82.2739 146° Southeast 288 331 7,000 -400 Descending Miami Center
Wed 05:01:58 PM 26.4328 -82.2292 148° Southeast 283 326 7,000  Level Miami Center
Wed 05:02:58 PM 26.4064 -82.1492 110° East 267 307 7,000 -650 Level Miami Center
Wed 05:03:58 PM 26.3989 -82.0700 96° East 247 284 5,700 -1,000 Descending Miami Center
Wed 05:04:58 PM 26.3892 -81.9908 98° East 247 284 5,000 -700 Descending Miami Center
Wed 05:06:00 PM 26.3164 -81.9245 141° Southeast  Level Estimated
Wed 05:13:00 PM 26.1524 -81.7756 141° Southeast  Level Estimated
Wed 05:14:00 PM 26.1524 -81.7756 36° Northeast  Level Estimated
Wed 05:15:00 PM 26.1524 -81.7756 36° Northeast  Level Estimated
Wed 05:16:00 PM 26.1524 -81.7756 36° Northeast  Level Estimated
Wed 05:17:00 PM 26.1524 -81.7756 36° Northeast  Level Estimated
Wed 05:18:00 PM 26.1524 -81.7756 36° Northeast  Level Estimated
Wed 05:19:00 PM 26.1524 -81.7756 36° Northeast  Level Estimated
Wed 05:20:00 PM 26.1524 -81.7756 36° Northeast  Level Estimated
Wed 05:21:00 PM 26.1524 -81.7756 36° Northeast  Level Estimated
Wed 05:22:00 PM 26.1524 -81.7756 36° Northeast  Level Estimated
Wed 05:23:00 PM 26.1524 -81.7756 36° Northeast  Level Estimated
Wed 05:24:00 PM 26.1524 -81.7756 36° Northeast  Level Estimated

Login

Don't have an account? Register now (free) for customized features, flight alerts, and more!